Time;durP1;ratioP1;P1;durP2;ratioP2;P2;SDS_P1;SDS_P2;PMS_P1;PMS_P2;Temp;Humidity;BMP_temperature;BMP_pressure;BME280_temperature;BME280_humidity;BME280_pressure;Samples;Min_cycle;Max_cycle;Signal;HPM_P1;HPM_P2
2022/08/14 00:00:39;;;;;;;13.25;4.03;;;21.20;99.90;;;;;;5127455;28;20043;-84
2022/08/14 00:03:05;;;;;;;5.30;4.13;;;21.20;99.90;;;;;;5092499;28;20035;-84
2022/08/14 00:05:30;;;;;;;6.22;4.00;;;21.20;99.90;;;;;;5074614;28;20075;-83
2022/08/14 00:07:56;;;;;;;8.38;4.15;;;21.20;99.90;;;;;;5076088;28;20799;-84
2022/08/14 00:10:23;;;;;;;6.35;4.03;;;20.70;99.90;;;;;;5090714;28;20488;-84
2022/08/14 00:12:53;;;;;;;4.93;3.40;;;21.10;99.90;;;;;;5109030;28;20103;-84
2022/08/14 00:15:31;;;;;;;4.93;4.30;;;21.00;99.90;;;;;;5108470;28;20092;-83
2022/08/14 00:17:57;;;;;;;9.45;4.68;;;21.00;99.90;;;;;;5091389;28;20107;-83
2022/08/14 00:20:26;;;;;;;5.15;4.15;;;21.00;99.90;;;;;;5127871;28;20118;-83
2022/08/14 00:22:52;;;;;;;5.20;3.75;;;20.90;99.90;;;;;;5107879;28;20397;-84
2022/08/14 00:25:18;;;;;;;7.82;4.68;;;20.90;99.90;;;;;;5128384;28;20114;-84
2022/08/14 00:27:44;;;;;;;9.55;4.60;;;20.90;99.90;;;;;;5107776;28;20043;-83
2022/08/14 00:30:12;;;;;;;14.35;4.93;;;20.80;99.90;;;;;;5109222;27;20126;-84
2022/08/14 00:32:38;;;;;;;8.70;4.60;;;20.80;99.90;;;;;;5112580;27;20457;-83
2022/08/14 00:35:05;;;;;;;10.50;4.55;;;20.80;99.90;;;;;;5095118;27;20945;-84
2022/08/14 00:37:32;;;;;;;5.53;4.32;;;20.80;99.90;;;;;;5096616;27;20039;-84
2022/08/14 00:39:58;;;;;;;6.72;4.90;;;20.80;99.90;;;;;;5094883;27;20043;-84
2022/08/14 00:42:24;;;;;;;5.43;4.72;;;20.80;99.90;;;;;;5095961;27;20073;-84
2022/08/14 00:44:50;;;;;;;9.18;4.60;;;20.80;99.90;;;;;;5094383;27;20122;-84
2022/08/14 00:47:17;;;;;;;6.82;5.18;;;20.70;99.90;;;;;;5112253;27;20126;-84
2022/08/14 00:49:43;;;;;;;11.80;5.43;;;20.70;99.90;;;;;;5095478;27;20031;-84
2022/08/14 00:52:11;;;;;;;6.45;4.78;;;20.70;99.90;;;;;;5111764;27;20141;-84
2022/08/14 00:54:37;;;;;;;6.20;4.60;;;20.70;99.90;;;;;;5112856;27;20070;-83
2022/08/14 00:57:04;;;;;;;6.88;5.15;;;20.60;99.90;;;;;;5110863;27;20054;-83
2022/08/14 00:59:30;;;;;;;7.05;4.60;;;20.60;99.90;;;;;;5095680;27;20050;-84
2022/08/14 01:01:59;;;;;;;5.97;5.20;;;20.60;99.90;;;;;;5094227;27;20100;-83
2022/08/14 01:04:27;;;;;;;10.43;5.53;;;20.60;99.90;;;;;;5095342;27;20038;-83
2022/08/14 01:06:53;;;;;;;9.20;5.30;;;20.50;99.90;;;;;;5112231;27;20401;-84
2022/08/14 01:09:21;;;;;;;9.40;5.78;;;20.50;99.90;;;;;;5111432;27;20502;-84
2022/08/14 01:11:51;;;;;;;8.57;5.47;;;20.50;99.90;;;;;;5095205;27;20051;-84
2022/08/14 01:14:18;;;;;;;8.43;5.95;;;20.50;99.90;;;;;;5077113;27;20097;-83
2022/08/14 01:16:46;;;;;;;7.13;5.18;;;20.50;99.90;;;;;;5095875;27;20080;-83
2022/08/14 01:21:57;;;;;;;7.90;6.47;;;20.40;99.90;;;;;;5097256;27;20095;-84
2022/08/14 01:24:24;;;;;;;6.78;5.90;;;20.40;99.90;;;;;;5112560;27;20039;-84
2022/08/14 01:26:52;;;;;;;9.43;6.68;;;20.40;99.90;;;;;;5110867;27;20375;-84
2022/08/14 01:29:18;;;;;;;5.93;4.88;;;20.30;99.90;;;;;;5078776;27;20060;-84
2022/08/14 01:31:45;;;;;;;6.50;5.82;;;20.30;99.90;;;;;;5110536;27;20051;-83
2022/08/14 01:34:12;;;;;;;9.35;5.70;;;20.30;99.90;;;;;;5061541;27;20060;-83
2022/08/14 01:36:38;;;;;;;7.45;6.03;;;20.30;99.90;;;;;;5111111;27;20043;-83
2022/08/14 01:39:10;;;;;;;12.35;6.55;;;20.30;99.90;;;;;;5111119;27;20046;-83
2022/08/14 01:41:36;;;;;;;8.93;6.30;;;20.20;99.90;;;;;;5111334;27;20169;-83
2022/08/14 01:44:06;;;;;;;6.18;5.55;;;20.20;99.90;;;;;;5110534;27;20285;-83
2022/08/14 01:46:37;;;;;;;8.38;6.00;;;20.20;99.90;;;;;;5111870;27;20073;-84
2022/08/14 01:49:08;;;;;;;7.22;6.50;;;20.10;99.90;;;;;;5093349;27;20123;-84
2022/08/14 01:51:35;;;;;;;9.45;6.22;;;20.10;99.90;;;;;;5110911;27;20043;-84
2022/08/14 01:54:08;;;;;;;8.05;6.80;;;20.30;99.90;;;;;;5094016;27;20047;-83
2022/08/14 01:56:38;;;;;;;7.50;6.32;;;20.10;99.90;;;;;;5094087;27;20042;-83
2022/08/14 01:59:18;;;;;;;9.02;6.07;;;20.00;99.90;;;;;;5095166;27;20084;-84
2022/08/14 02:01:45;;;;;;;7.72;6.80;;;20.00;99.90;;;;;;5093282;27;20095;-83
2022/08/14 02:04:11;;;;;;;8.57;6.22;;;20.00;99.90;;;;;;5111494;27;20073;-83
2022/08/14 02:06:37;;;;;;;7.55;6.38;;;19.90;99.90;;;;;;5110282;27;20486;-84
2022/08/14 02:09:07;;;;;;;12.75;6.32;;;19.90;99.90;;;;;;5110699;27;20100;-84
2022/08/14 02:11:34;;;;;;;8.63;6.95;;;19.90;99.90;;;;;;5110735;27;20566;-84
2022/08/14 02:14:00;;;;;;;11.68;7.03;;;19.90;99.90;;;;;;5110065;27;20089;-84
2022/08/14 02:16:32;;;;;;;8.23;6.95;;;19.90;99.90;;;;;;5111299;27;20039;-83
2022/08/14 02:19:03;;;;;;;12.45;7.03;;;19.90;99.90;;;;;;5093523;27;20122;-84
2022/08/14 02:21:31;;;;;;;12.93;7.65;;;19.80;99.90;;;;;;5110558;27;20039;-84
2022/08/14 02:23:59;;;;;;;8.93;7.43;;;19.90;99.90;;;;;;5092978;27;20046;-83
2022/08/14 02:26:27;;;;;;;11.15;7.93;;;19.80;99.90;;;;;;5092839;27;20039;-83
2022/08/14 02:29:00;;;;;;;9.20;7.10;;;19.80;99.90;;;;;;5093719;27;20042;-83
2022/08/14 02:31:29;;;;;;;9.48;8.00;;;19.80;99.90;;;;;;5109537;27;20043;-83
2022/08/14 02:33:55;;;;;;;11.57;7.07;;;19.90;99.90;;;;;;5076952;27;20047;-83
2022/08/14 02:36:21;;;;;;;10.55;6.90;;;19.80;99.90;;;;;;5110107;27;20429;-83
2022/08/14 02:38:48;;;;;;;8.98;6.85;;;19.80;99.90;;;;;;5092974;27;20043;-84
2022/08/14 02:41:14;;;;;;;8.57;7.18;;;19.80;99.90;;;;;;5076744;27;20086;-84
2022/08/14 02:43:41;;;;;;;11.57;7.70;;;19.90;99.90;;;;;;5092744;27;20093;-84
2022/08/14 02:46:09;;;;;;;10.57;7.60;;;19.80;99.90;;;;;;5093567;27;20308;-84
2022/08/14 02:48:42;;;;;;;7.90;7.10;;;19.80;99.90;;;;;;5075109;27;20050;-83
2022/08/14 02:51:10;;;;;;;7.07;6.22;;;19.80;99.90;;;;;;5093384;27;20047;-83
2022/08/14 02:53:43;;;;;;;7.88;6.93;;;19.80;99.90;;;;;;5108386;27;20047;-84
2022/08/14 02:56:09;;;;;;;9.13;8.10;;;19.70;99.90;;;;;;5109466;27;20517;-83
2022/08/14 02:58:38;;;;;;;13.23;7.22;;;19.70;99.90;;;;;;5076547;27;20040;-83
2022/08/14 03:01:08;;;;;;;8.65;7.55;;;19.70;99.90;;;;;;5092004;27;20568;-83
2022/08/14 03:03:35;;;;;;;10.07;7.45;;;19.70;99.90;;;;;;5076986;27;20351;-83
2022/08/14 03:06:03;;;;;;;9.23;6.68;;;19.60;99.90;;;;;;5108922;27;20047;-83
2022/08/14 03:08:32;;;;;;;9.15;7.40;;;19.60;99.90;;;;;;5110078;27;20050;-84
2022/08/14 03:11:05;;;;;;;15.40;7.70;;;19.70;99.90;;;;;;5109057;27;20050;-84
2022/08/14 03:13:33;;;;;;;15.35;8.27;;;19.60;99.90;;;;;;5108985;27;20054;-84
2022/08/14 03:15:59;;;;;;;9.65;8.38;;;19.60;99.90;;;;;;5093530;27;20039;-84
2022/08/14 03:18:26;;;;;;;9.65;7.38;;;19.60;99.90;;;;;;5091518;27;20387;-83
2022/08/14 03:20:52;;;;;;;12.57;7.45;;;19.50;99.90;;;;;;5093060;27;20114;-84
2022/08/14 03:23:18;;;;;;;12.32;6.90;;;19.50;99.90;;;;;;5092237;27;20142;-84
2022/08/14 03:25:45;;;;;;;9.60;7.93;;;19.50;99.90;;;;;;5109684;27;20378;-84
2022/08/14 03:28:11;;;;;;;11.20;8.07;;;19.50;99.90;;;;;;5108896;27;20524;-83
2022/08/14 03:30:37;;;;;;;9.55;8.18;;;19.50;99.90;;;;;;5108808;27;20047;-83
2022/08/14 03:33:04;;;;;;;14.07;8.57;;;19.50;99.90;;;;;;5109510;27;20051;-83
2022/08/14 03:35:32;;;;;;;8.98;8.07;;;19.70;99.90;;;;;;5108319;27;20115;-84
2022/08/14 03:38:09;;;;;;;14.07;7.82;;;19.40;99.90;;;;;;5092715;28;20054;-84
2022/08/14 03:40:39;;;;;;;10.60;7.88;;;19.40;99.90;;;;;;5092436;28;20405;-84
2022/08/14 03:43:06;;;;;;;16.15;8.95;;;19.40;99.90;;;;;;5076060;28;20053;-84
2022/08/14 03:45:37;;;;;;;11.20;8.48;;;19.40;99.90;;;;;;5092205;28;20039;-84
2022/08/14 03:48:18;;;;;;;9.35;7.93;;;19.40;99.90;;;;;;5091706;28;20145;-83
2022/08/14 03:50:46;;;;;;;10.05;8.32;;;19.40;99.90;;;;;;5095297;28;20031;-84
2022/08/14 03:53:13;;;;;;;10.60;8.07;;;19.40;99.90;;;;;;5108342;28;20070;-83
2022/08/14 03:55:40;;;;;;;10.35;9.00;;;19.40;99.90;;;;;;5058680;28;20047;-84
2022/08/14 03:58:06;;;;;;;9.90;8.50;;;19.30;99.90;;;;;;5091719;28;20524;-84
2022/08/14 04:00:34;;;;;;;9.63;8.63;;;19.30;99.90;;;;;;5108916;28;20046;-83
2022/08/14 04:03:01;;;;;;;10.73;8.88;;;19.30;99.90;;;;;;5092637;28;20103;-83
2022/08/14 04:05:27;;;;;;;10.00;7.78;;;19.30;99.90;;;;;;5111454;27;20455;-83
2022/08/14 04:07:52;;;;;;;13.80;8.52;;;19.30;99.90;;;;;;5079528;27;20081;-84
2022/08/14 04:10:19;;;;;;;10.90;7.63;;;19.30;99.90;;;;;;5111859;27;20057;-84
2022/08/14 04:12:44;;;;;;;10.43;8.45;;;19.30;99.90;;;;;;5078983;27;20039;-84
2022/08/14 04:15:10;;;;;;;12.95;8.30;;;19.90;99.90;;;;;;5112733;27;20046;-83
2022/08/14 04:17:36;;;;;;;11.77;8.45;;;19.30;99.90;;;;;;5112380;27;20485;-84
2022/08/14 04:20:04;;;;;;;13.80;7.72;;;19.30;99.90;;;;;;5079380;27;20130;-84
2022/08/14 04:22:31;;;;;;;8.93;7.65;;;19.30;99.90;;;;;;5078756;27;20039;-84
2022/08/14 04:24:58;;;;;;;12.40;8.60;;;19.30;99.90;;;;;;5096708;27;20050;-84
2022/08/14 04:27:25;;;;;;;11.00;9.05;;;19.30;99.90;;;;;;5094774;27;20039;-84
2022/08/14 04:29:52;;;;;;;15.70;8.02;;;19.20;99.90;;;;;;5112605;27;20097;-84
2022/08/14 04:32:22;;;;;;;10.98;8.30;;;19.30;99.90;;;;;;5095081;27;20383;-84
2022/08/14 04:34:47;;;;;;;9.93;8.32;;;19.30;99.90;;;;;;5112076;27;20043;-84
2022/08/14 04:45:39;;;;;;;9.80;7.60;;;19.30;99.90;;;;;;5097704;27;20053;-84
2022/08/14 04:48:12;;;;;;;8.63;7.65;;;19.30;99.90;;;;;;5111813;27;20147;-84
2022/08/14 04:50:50;;;;;;;11.82;7.57;;;19.30;99.90;;;;;;5113322;27;20172;-84
2022/08/14 04:53:18;;;;;;;10.70;6.97;;;19.30;99.90;;;;;;5111329;27;20039;-84
2022/08/14 04:55:47;;;;;;;10.18;7.63;;;19.30;99.90;;;;;;5111907;27;20145;-83
2022/08/14 04:58:29;;;;;;;11.10;7.07;;;19.30;99.90;;;;;;5112147;27;20443;-84
2022/08/14 05:00:57;;;;;;;8.63;7.57;;;19.30;99.90;;;;;;5094145;27;20176;-84
2022/08/14 05:03:28;;;;;;;10.35;8.02;;;19.20;99.90;;;;;;5112820;27;20307;-84
2022/08/14 05:05:57;;;;;;;9.85;7.95;;;19.40;99.90;;;;;;5111526;27;20391;-84
2022/08/14 05:08:23;;;;;;;16.05;7.90;;;19.30;99.90;;;;;;5111852;27;20092;-84
2022/08/14 05:10:53;;;;;;;14.57;7.00;;;19.40;99.90;;;;;;5077583;27;20494;-84
2022/08/14 05:13:24;;;;;;;9.15;7.90;;;19.40;99.90;;;;;;5111538;27;20043;-84
2022/08/14 05:15:51;;;;;;;18.77;8.07;;;19.40;99.90;;;;;;5111563;27;20468;-84
2022/08/14 05:18:23;;;;;;;11.70;7.95;;;19.40;99.90;;;;;;5093581;27;20042;-84
2022/08/14 05:20:52;;;;;;;9.65;8.57;;;19.50;99.90;;;;;;5078845;27;20488;-85
2022/08/14 05:23:20;;;;;;;9.85;8.10;;;19.50;99.90;;;;;;5111150;27;20108;-85
2022/08/14 05:25:47;;;;;;;8.82;7.88;;;19.50;99.90;;;;;;5094520;27;20031;-84
2022/08/14 05:28:17;;;;;;;9.15;6.90;;;19.60;99.90;;;;;;5111074;27;20050;-85
2022/08/14 05:30:45;;;;;;;12.02;7.57;;;19.60;99.90;;;;;;5110566;27;20123;-85
2022/08/14 05:33:13;;;;;;;13.82;7.45;;;19.70;99.90;;;;;;5108465;28;20620;-87
2022/08/14 05:35:39;;;;;;;13.20;8.70;;;19.80;99.90;;;;;;5106689;28;20540;-87
2022/08/14 05:38:11;;;;;;;8.77;7.88;;;19.80;99.90;;;;;;5091269;28;20051;-88
2022/08/14 05:40:37;;;;;;;10.30;7.45;;;19.90;99.90;;;;;;5091012;28;20044;-88
2022/08/14 05:43:03;;;;;;;11.55;7.47;;;20.00;99.90;;;;;;5090738;28;20546;-89
2022/08/14 05:45:28;;;;;;;11.27;7.35;;;20.10;99.90;;;;;;5074373;28;20039;-90
2022/08/14 05:47:54;;;;;;;10.80;7.20;;;20.60;99.90;;;;;;5057215;28;20043;-90
2022/08/14 05:50:20;;;;;;;7.63;6.80;;;20.30;99.90;;;;;;5058490;28;20042;-89
2022/08/14 05:52:49;;;;;;;15.90;7.38;;;20.70;99.90;;;;;;5072525;28;20040;-88
2022/08/14 05:55:15;;;;;;;11.65;6.45;;;20.50;99.90;;;;;;5074648;28;20039;-91
2022/08/14 05:57:49;;;;;;;8.93;6.45;;;20.60;99.90;;;;;;5073757;28;20089;-90
2022/08/14 06:00:17;;;;;;;9.45;6.90;;;20.80;99.90;;;;;;5074356;28;20043;-89
2022/08/14 06:02:43;;;;;;;10.43;6.78;;;21.10;99.90;;;;;;5091033;28;20051;-89
2022/08/14 06:05:09;;;;;;;10.10;5.65;;;21.00;99.90;;;;;;5073199;28;20042;-92
2022/08/14 06:07:35;;;;;;;11.23;6.75;;;21.10;99.90;;;;;;5092056;28;20040;-89
2022/08/14 06:10:03;;;;;;;8.02;6.93;;;21.20;99.90;;;;;;5056080;28;20085;-90
2022/08/14 06:12:28;;;;;;;7.88;6.30;;;21.30;99.90;;;;;;5093326;28;20434;-88
2022/08/14 06:14:54;;;;;;;10.77;6.63;;;21.40;99.90;;;;;;5107640;28;20040;-91
2022/08/14 06:17:20;;;;;;;8.18;6.50;;;21.50;99.90;;;;;;5057550;28;20047;-89
2022/08/14 06:19:45;;;;;;;8.73;7.05;;;21.60;99.90;;;;;;5090478;28;20042;-89
2022/08/14 06:22:11;;;;;;;7.25;6.53;;;21.70;99.90;;;;;;5074302;28;20035;-92
2022/08/14 06:24:37;;;;;;;8.10;6.90;;;21.90;99.90;;;;;;5058059;28;20130;-91
2022/08/14 06:27:03;;;;;;;8.15;7.30;;;22.20;99.90;;;;;;5073351;28;20082;-93
2022/08/14 06:29:29;;;;;;;11.93;7.43;;;22.10;99.90;;;;;;5074046;28;20042;-89
2022/08/14 06:31:56;;;;;;;9.05;6.70;;;22.10;99.90;;;;;;5075690;27;20055;-87
2022/08/14 06:34:22;;;;;;;8.48;7.30;;;22.20;99.90;;;;;;5093277;27;20142;-88
2022/08/14 06:36:47;;;;;;;9.27;7.22;;;22.20;99.90;;;;;;5076833;27;20101;-94
2022/08/14 06:39:13;;;;;;;10.20;7.07;;;22.20;99.90;;;;;;5060233;27;20126;-90
2022/08/14 06:41:40;;;;;;;7.88;6.30;;;22.30;99.90;;;;;;5061092;27;20047;-89
2022/08/14 06:44:09;;;;;;;13.95;7.20;;;22.40;99.90;;;;;;5059931;27;20051;-89
2022/08/14 06:46:35;;;;;;;10.93;7.47;;;22.50;99.90;;;;;;5077656;27;20039;-90
2022/08/14 06:49:01;;;;;;;11.32;6.85;;;22.60;99.90;;;;;;5096073;27;20156;-90
2022/08/14 06:51:27;;;;;;;8.05;6.50;;;22.60;99.90;;;;;;5097371;27;20040;-91
2022/08/14 06:53:53;;;;;;;11.32;7.72;;;22.80;99.90;;;;;;5061291;27;20142;-90
2022/08/14 06:56:19;;;;;;;8.18;7.38;;;22.80;99.90;;;;;;5079737;27;20043;-90
2022/08/14 06:58:45;;;;;;;12.18;7.35;;;22.90;99.90;;;;;;5081811;27;20050;-90
2022/08/14 07:06:41;;;;;;;9.32;6.70;;;23.10;99.90;;;;;;5097343;27;20047;-89
2022/08/14 07:09:09;;;;;;;8.88;6.82;;;23.20;99.90;;;;;;5077350;27;20394;-89
2022/08/14 07:11:35;;;;;;;7.05;6.35;;;23.20;99.90;;;;;;5097581;27;20587;-94
2022/08/14 07:14:01;;;;;;;9.65;6.45;;;23.30;99.90;;;;;;5081171;27;20085;-91
2022/08/14 07:16:27;;;;;;;10.98;6.78;;;23.40;99.90;;;;;;5100294;27;20047;-91
2022/08/14 07:18:53;;;;;;;9.40;6.55;;;23.50;99.90;;;;;;5070012;27;20050;-88
2022/08/14 07:21:18;;;;;;;9.65;5.75;;;23.60;99.90;;;;;;5079224;27;20031;-90
2022/08/14 07:23:44;;;;;;;10.68;6.60;;;23.70;99.90;;;;;;5076937;27;20152;-95
2022/08/14 07:26:12;;;;;;;9.93;6.50;;;23.80;99.90;;;;;;5074843;28;20051;-90
2022/08/14 07:28:39;;;;;;;7.60;5.50;;;23.90;99.90;;;;;;5078508;27;20047;-93
2022/08/14 07:31:07;;;;;;;7.68;5.53;;;24.00;99.90;;;;;;5077739;27;20320;-92
2022/08/14 07:33:45;;;;;;;7.15;5.35;;;24.20;99.90;;;;;;5078211;28;20464;-91
2022/08/14 07:36:12;;;;;;;8.60;5.85;;;24.30;99.90;;;;;;5092977;27;20449;-90
2022/08/14 07:38:41;;;;;;;5.35;4.78;;;24.40;99.90;;;;;;5076091;27;20119;-91
2022/08/14 07:41:09;;;;;;;6.88;5.20;;;24.50;99.90;;;;;;5060250;27;20043;-90
2022/08/14 07:43:35;;;;;;;5.20;4.70;;;24.60;99.90;;;;;;5092881;28;20126;-91
2022/08/14 07:46:02;;;;;;;9.15;4.68;;;24.70;99.90;;;;;;5094082;28;20043;-93
2022/08/14 07:48:28;;;;;;;7.13;5.03;;;24.80;99.90;;;;;;5075696;28;20478;-90
2022/08/14 07:50:54;;;;;;;10.38;5.18;;;24.80;99.90;;;;;;5077362;28;20107;-90
2022/08/14 07:53:20;;;;;;;8.05;4.53;;;24.90;99.90;;;;;;5075892;28;20036;-92
2022/08/14 07:55:47;;;;;;;5.43;4.72;;;25.00;99.90;;;;;;5059550;28;20039;-88
2022/08/14 07:58:13;;;;;;;5.00;4.47;;;25.10;99.90;;;;;;5092209;28;20062;-91
2022/08/14 08:00:40;;;;;;;5.88;5.00;;;25.10;99.90;;;;;;5059208;28;20078;-89
2022/08/14 08:03:09;;;;;;;7.35;4.80;;;25.30;99.90;;;;;;5093842;28;20470;-92
2022/08/14 08:05:37;;;;;;;6.07;4.45;;;25.40;99.90;;;;;;5060690;28;20084;-93
2022/08/14 08:08:09;;;;;;;5.18;4.53;;;25.40;99.90;;;;;;5080279;28;20104;-92
2022/08/14 08:10:37;;;;;;;6.20;5.18;;;25.50;99.90;;;;;;5075455;28;20443;-86
2022/08/14 08:13:11;;;;;;;8.80;6.10;;;25.60;99.90;;;;;;5110379;28;20035;-91
2022/08/14 08:15:43;;;;;;;6.32;4.53;;;25.60;99.90;;;;;;5110741;28;20058;-89
2022/08/14 08:18:12;;;;;;;6.38;4.80;;;25.80;99.90;;;;;;5091823;28;20039;-91
2022/08/14 08:20:48;;;;;;;5.32;4.50;;;25.80;99.90;;;;;;5093067;28;20035;-88
2022/08/14 08:23:15;;;;;;;7.32;4.28;;;25.90;99.90;;;;;;5108209;28;20050;-88
2022/08/14 08:25:43;;;;;;;5.65;4.43;;;26.00;99.90;;;;;;5092493;28;20078;-92
2022/08/14 08:28:20;;;;;;;5.70;4.78;;;26.00;99.90;;;;;;5076475;27;20047;-96
2022/08/14 08:30:57;;;;;;;4.75;4.35;;;26.10;99.90;;;;;;5095289;28;20131;-92
2022/08/14 08:33:26;;;;;;;7.43;3.90;;;26.30;99.90;;;;;;5093699;28;20516;-96
2022/08/14 08:35:53;;;;;;;6.32;4.10;;;26.40;99.90;;;;;;5065441;28;20040;-93
2022/08/14 08:38:22;;;;;;;4.55;4.00;;;26.40;99.90;;;;;;5076392;28;20044;-91
2022/08/14 08:40:50;;;;;;;9.05;4.53;;;26.40;99.90;;;;;;5092031;28;20043;-92
2022/08/14 08:43:22;;;;;;;6.43;4.43;;;26.60;99.90;;;;;;5092770;28;20039;-93
2022/08/14 08:46:07;;;;;;;4.73;4.00;;;26.70;99.90;;;;;;5093216;28;20082;-90
2022/08/14 08:48:44;;;;;;;5.00;3.53;;;26.70;99.90;;;;;;5092090;28;20051;-91
2022/08/14 08:51:32;;;;;;;4.65;3.83;;;26.80;99.90;;;;;;5110389;27;20055;-90
2022/08/14 08:54:10;;;;;;;5.47;4.00;;;26.80;99.90;;;;;;5097598;27;20412;-93
2022/08/14 08:56:40;;;;;;;4.55;3.70;;;27.00;99.90;;;;;;5096632;27;20043;-93
2022/08/14 08:59:15;;;;;;;3.72;3.33;;;27.10;99.90;;;;;;5096977;27;20074;-93
2022/08/14 09:01:41;;;;;;;6.05;3.58;;;27.10;99.90;;;;;;5096336;27;20054;-96
2022/08/14 09:04:06;;;;;;;4.57;3.92;;;27.00;99.90;;;;;;5079650;27;20039;-91
2022/08/14 09:06:46;;;;;;;5.22;3.92;;;27.40;99.90;;;;;;5078276;27;20510;-89
2022/08/14 09:09:23;;;;;;;3.92;3.47;;;27.40;99.20;;;;;;5095087;27;20043;-90
2022/08/14 09:11:53;;;;;;;4.60;3.28;;;27.50;99.10;;;;;;5079112;27;20074;-85
2022/08/14 09:14:20;;;;;;;5.97;3.70;;;27.50;99.60;;;;;;5093955;27;20039;-87
2022/08/14 09:16:45;;;;;;;5.88;3.80;;;27.60;99.40;;;;;;5062440;27;20043;-88
2022/08/14 09:19:11;;;;;;;5.60;4.05;;;27.60;99.20;;;;;;5078962;27;20487;-89
2022/08/14 09:21:38;;;;;;;4.25;3.75;;;27.70;99.10;;;;;;5095728;27;20515;-88
2022/08/14 09:24:06;;;;;;;7.40;3.47;;;27.80;98.80;;;;;;5095697;27;20127;-91
2022/08/14 09:26:33;;;;;;;4.20;3.63;;;27.90;98.60;;;;;;5096201;27;20344;-93
2022/08/14 09:28:59;;;;;;;4.25;3.60;;;27.90;98.50;;;;;;5096435;27;20037;-90
2022/08/14 09:31:27;;;;;;;4.18;3.40;;;28.00;97.90;;;;;;5111788;27;20039;-88
2022/08/14 09:33:57;;;;;;;5.82;3.25;;;28.00;97.50;;;;;;5112633;27;20058;-89
2022/08/14 09:36:32;;;;;;;4.38;3.47;;;28.10;97.00;;;;;;5111375;27;20092;-90
2022/08/14 09:39:11;;;;;;;3.50;3.20;;;28.10;97.00;;;;;;5112527;27;20043;-93
2022/08/14 09:41:49;;;;;;;6.32;3.70;;;28.10;96.50;;;;;;5095560;27;20042;-91
2022/08/14 09:44:26;;;;;;;5.78;4.30;;;28.20;96.40;;;;;;5112056;27;20091;-92
2022/08/14 09:46:56;;;;;;;4.60;3.53;;;28.20;96.50;;;;;;5112763;27;20042;-89
2022/08/14 09:49:34;;;;;;;5.13;4.03;;;28.30;96.30;;;;;;5094798;27;20110;-95
2022/08/14 09:52:05;;;;;;;4.53;3.83;;;28.30;95.80;;;;;;5096757;27;20054;-94
2022/08/14 09:54:45;;;;;;;6.47;4.30;;;28.40;95.90;;;;;;5095548;27;20086;-93
2022/08/14 09:57:24;;;;;;;7.05;3.50;;;28.50;95.80;;;;;;5095578;27;20090;-93
2022/08/14 09:59:50;;;;;;;4.80;3.88;;;28.50;95.90;;;;;;5113218;27;20058;-95
2022/08/14 10:02:25;;;;;;;5.03;3.88;;;28.50;96.00;;;;;;5111462;27;20470;-92
2022/08/14 10:05:07;;;;;;;4.55;3.78;;;28.60;95.20;;;;;;5094594;27;20051;-88
2022/08/14 10:07:36;;;;;;;4.05;3.65;;;28.70;94.90;;;;;;5131159;27;20039;-93
2022/08/14 10:10:04;;;;;;;5.28;3.95;;;28.80;95.00;;;;;;5097521;27;20050;-95
2022/08/14 10:12:50;;;;;;;9.25;4.25;;;28.90;94.60;;;;;;5096415;27;20051;-94
2022/08/14 10:15:21;;;;;;;4.32;3.53;;;28.90;93.20;;;;;;5077390;27;20047;-95
2022/08/14 10:18:25;;;;;;;6.30;4.00;;;29.00;93.70;;;;;;5098920;27;20054;-93
2022/08/14 10:20:56;;;;;;;7.75;3.78;;;28.90;93.60;;;;;;5094941;27;20055;-93
2022/08/14 10:23:24;;;;;;;4.40;3.83;;;28.90;94.30;;;;;;5094612;27;20464;-94
2022/08/14 10:25:56;;;;;;;5.30;4.80;;;29.10;93.90;;;;;;5112265;27;20284;-90
2022/08/14 10:28:23;;;;;;;5.00;3.85;;;29.20;93.10;;;;;;5111280;27;20043;-93
2022/08/14 10:30:53;;;;;;;4.95;3.90;;;29.30;92.80;;;;;;5095127;27;20031;-92
2022/08/14 10:33:30;;;;;;;4.30;3.65;;;29.30;92.40;;;;;;5095674;27;20092;-92
2022/08/14 10:36:01;;;;;;;4.47;4.07;;;29.40;92.00;;;;;;5094506;27;20047;-91
2022/08/14 10:38:31;;;;;;;3.70;3.30;;;29.40;92.20;;;;;;5063854;27;20478;-92
2022/08/14 10:41:11;;;;;;;3.85;3.10;;;29.40;91.90;;;;;;5093114;27;20088;-93
2022/08/14 10:43:37;;;;;;;3.97;3.47;;;29.40;90.80;;;;;;5078387;27;20591;-95
2022/08/14 10:46:12;;;;;;;4.45;2.90;;;29.50;90.50;;;;;;5117687;27;20484;-96
2022/08/14 10:48:38;;;;;;;3.70;2.75;;;29.50;89.50;;;;;;5096984;27;20619;-94
2022/08/14 10:51:04;;;;;;;3.50;3.20;;;29.50;88.70;;;;;;5114004;27;20039;-95
2022/08/14 10:53:33;;;;;;;3.60;3.25;;;29.60;87.90;;;;;;5116093;27;20509;-93
2022/08/14 10:56:02;;;;;;;3.95;3.17;;;29.60;87.20;;;;;;5098062;27;20511;-92
2022/08/14 10:58:31;;;;;;;3.17;2.88;;;29.60;86.80;;;;;;5082594;27;20051;-94
2022/08/14 11:01:04;;;;;;;4.88;3.40;;;29.70;86.70;;;;;;5115923;27;20367;-91
2022/08/14 11:03:41;;;;;;;3.80;3.00;;;30.30;86.00;;;;;;5118088;27;20036;-96
2022/08/14 11:06:21;;;;;;;5.05;3.25;;;30.00;85.90;;;;;;5155799;27;20062;-96
2022/08/14 11:08:48;;;;;;;3.90;3.33;;;30.10;86.30;;;;;;5127932;27;20035;-96
2022/08/14 11:11:16;;;;;;;4.28;2.80;;;30.20;84.50;;;;;;5111864;27;20031;-95
2022/08/14 11:13:43;;;;;;;5.25;3.20;;;30.20;84.20;;;;;;5104665;28;20088;-95
2022/08/14 11:16:09;;;;;;;3.50;3.20;;;30.20;83.20;;;;;;5104657;27;20043;-96
2022/08/14 11:18:36;;;;;;;4.80;3.05;;;30.30;81.40;;;;;;5128937;27;20056;-96
2022/08/14 11:21:05;;;;;;;5.95;3.22;;;30.30;79.80;;;;;;5118966;27;20131;-95
2022/08/14 11:23:37;;;;;;;3.70;3.40;;;30.30;79.20;;;;;;5081223;27;20050;-94
2022/08/14 11:26:05;;;;;;;6.50;3.55;;;30.40;79.10;;;;;;5095499;27;20671;-91
2022/08/14 11:28:38;;;;;;;3.65;3.28;;;30.50;79.10;;;;;;5080697;27;20100;-91
2022/08/14 11:31:09;;;;;;;5.55;3.38;;;30.50;79.00;;;;;;5112093;27;20039;-90
2022/08/14 11:33:36;;;;;;;3.80;3.42;;;30.70;78.60;;;;;;5092258;27;20066;-91
2022/08/14 11:36:06;;;;;;;3.45;3.15;;;30.80;78.80;;;;;;5093102;27;20067;-88
2022/08/14 11:38:42;;;;;;;6.25;5.65;;;30.80;77.10;;;;;;5091755;27;20454;-87
2022/08/14 11:41:10;;;;;;;6.15;3.22;;;30.90;75.90;;;;;;5076356;28;20057;-90
2022/08/14 11:43:40;;;;;;;3.35;3.05;;;31.00;76.50;;;;;;5111850;27;20096;-90
2022/08/14 11:46:07;;;;;;;3.88;3.30;;;31.10;73.80;;;;;;5111662;28;20039;-92
2022/08/14 11:48:43;;;;;;;4.13;3.50;;;31.10;73.00;;;;;;5095141;28;20519;-92
2022/08/14 11:51:20;;;;;;;6.88;3.60;;;31.20;72.30;;;;;;5095096;28;20036;-94
2022/08/14 11:54:04;;;;;;;5.00;3.80;;;31.20;71.80;;;;;;5095214;28;20047;-93
2022/08/14 11:56:40;;;;;;;5.70;4.20;;;31.00;71.50;;;;;;5094373;28;20047;-88
2022/08/14 11:59:08;;;;;;;4.13;3.35;;;31.00;72.10;;;;;;5092266;28;20090;-88
2022/08/14 12:01:35;;;;;;;7.82;3.67;;;31.00;71.90;;;;;;5092511;28;20039;-88
2022/08/14 12:04:17;;;;;;;7.00;3.58;;;31.00;71.80;;;;;;5092328;28;20522;-94
2022/08/14 12:06:51;;;;;;;5.00;4.20;;;31.20;70.90;;;;;;5110394;28;20101;-87
2022/08/14 12:09:35;;;;;;;4.57;3.70;;;31.40;71.10;;;;;;5075937;28;20043;-87
2022/08/14 12:12:14;;;;;;;5.32;3.95;;;31.60;69.30;;;;;;5091386;28;20051;-87
2022/08/14 12:15:07;;;;;;;4.82;3.15;;;31.70;68.40;;;;;;5109474;28;20043;-87
2022/08/14 12:17:44;;;;;;;4.90;4.43;;;31.60;66.80;;;;;;5087727;28;20079;-87
2022/08/14 12:20:10;;;;;;;4.55;3.80;;;31.50;67.40;;;;;;5092005;28;20428;-88
2022/08/14 12:22:37;;;;;;;4.05;3.65;;;31.40;67.70;;;;;;5092466;28;20138;-87
2022/08/14 12:25:18;;;;;;;6.60;3.47;;;31.50;67.60;;;;;;5092032;27;20057;-87
2022/08/14 12:27:48;;;;;;;5.28;3.65;;;31.60;66.60;;;;;;5112989;27;20047;-87
2022/08/14 12:30:34;;;;;;;6.85;3.80;;;31.70;66.00;;;;;;5095581;27;20389;-88
2022/08/14 12:33:02;;;;;;;3.83;3.45;;;31.80;64.10;;;;;;5109045;28;20443;-88
2022/08/14 12:35:42;;;;;;;5.25;3.90;;;31.90;64.90;;;;;;5109297;28;20508;-88
2022/08/14 12:38:10;;;;;;;7.47;3.63;;;32.00;64.00;;;;;;5108740;28;20058;-87
2022/08/14 12:40:49;;;;;;;4.35;3.58;;;32.10;65.10;;;;;;5109082;28;20050;-88
2022/08/14 12:43:18;;;;;;;4.40;3.47;;;32.20;62.80;;;;;;5074695;28;20080;-89
2022/08/14 12:45:49;;;;;;;5.50;3.78;;;32.20;62.70;;;;;;5091949;28;20043;-88
2022/08/14 12:48:16;;;;;;;3.83;3.40;;;32.40;62.70;;;;;;5109732;28;20398;-89
2022/08/14 12:50:43;;;;;;;4.85;3.67;;;32.50;62.30;;;;;;5074998;28;20066;-88
2022/08/14 12:53:10;;;;;;;7.38;4.30;;;32.60;61.20;;;;;;5075296;28;20093;-88
2022/08/14 12:55:37;;;;;;;5.32;4.25;;;32.60;60.50;;;;;;5091446;28;20047;-88
2022/08/14 12:58:05;;;;;;;5.75;3.80;;;32.60;60.00;;;;;;5092186;28;20036;-88
2022/08/14 13:00:33;;;;;;;5.07;3.33;;;32.70;60.30;;;;;;5074439;28;20039;-89
2022/08/14 13:03:00;;;;;;;7.20;3.83;;;32.90;59.80;;;;;;5091354;28;20047;-88
2022/08/14 13:05:28;;;;;;;5.07;3.80;;;33.00;59.50;;;;;;5091813;28;20529;-88
2022/08/14 13:07:56;;;;;;;5.00;4.00;;;33.10;59.40;;;;;;5107929;28;20039;-89
2022/08/14 13:10:22;;;;;;;4.75;3.80;;;33.10;58.70;;;;;;5108677;28;20043;-88
2022/08/14 13:12:55;;;;;;;7.05;3.83;;;33.10;58.10;;;;;;5091023;28;20043;-88